createdAt,value
2023-03-22T00:02:30.588Z,26.80
2023-03-22T00:05:03.296Z,27.00
2023-03-22T00:07:35.675Z,28.20
2023-03-22T00:10:11.819Z,28.20
2023-03-22T00:12:44.283Z,25.20
2023-03-22T00:15:16.663Z,22.20
2023-03-22T00:17:50.349Z,23.20
2023-03-22T00:20:23.729Z,23.90
2023-03-22T00:22:56.198Z,21.80
2023-03-22T00:25:28.896Z,22.40
2023-03-22T00:28:01.192Z,23.70
2023-03-22T00:30:33.608Z,25.40
2023-03-22T00:33:06.390Z,25.30
2023-03-22T00:35:38.602Z,26.40
2023-03-22T00:38:14.509Z,22.90
2023-03-22T00:40:47.883Z,25.80
2023-03-22T00:43:20.486Z,24.40
2023-03-22T00:45:52.888Z,27.20
2023-03-22T00:48:25.192Z,23.50
2023-03-22T00:50:57.648Z,23.10
2023-03-22T00:53:30.457Z,23.60
2023-03-22T00:56:02.806Z,21.40
2023-03-22T00:58:40.585Z,18.80
2023-03-22T01:01:14.840Z,25.50
2023-03-22T01:03:50.829Z,26.20
2023-03-22T01:06:23.469Z,19.20
2023-03-22T01:08:57.600Z,22.80
2023-03-22T01:11:30.604Z,25.60
2023-03-22T01:14:03.913Z,22.70
2023-03-22T01:16:36.308Z,26.20
2023-03-22T01:19:08.853Z,25.60
2023-03-22T01:21:41.162Z,29.30
2023-03-22T01:24:13.586Z,22.50
2023-03-22T01:26:46.011Z,23.50
2023-03-22T01:29:18.683Z,22.30
2023-03-22T01:31:51.038Z,25.40
2023-03-22T01:34:23.519Z,21.80
2023-03-22T01:36:56.277Z,23.10
2023-03-22T01:39:29.020Z,22.70
2023-03-22T01:42:05.615Z,24.60
2023-03-22T01:44:39.830Z,26.50
2023-03-22T01:47:12.865Z,25.90
2023-03-22T01:49:45.188Z,23.50
2023-03-22T01:52:18.076Z,23.20
2023-03-22T01:55:09.489Z,24.60
2023-03-22T01:57:47.476Z,26.30
2023-03-22T02:00:27.958Z,25.40
2023-03-22T02:03:20.491Z,23.70
2023-03-22T02:05:53.930Z,24.70
2023-03-22T02:08:27.884Z,22.00
2023-03-22T02:11:05.655Z,25.30
2023-03-22T02:13:56.185Z,25.80
2023-03-22T02:16:57.170Z,24.80
2023-03-22T02:19:52.134Z,25.70
2023-03-22T02:22:58.468Z,27.90
2023-03-22T02:28:24.302Z,21.00
2023-03-22T02:31:18.262Z,22.50
2023-03-22T02:34:27.371Z,23.10
2023-03-22T02:37:18.514Z,24.50
2023-03-22T02:39:55.182Z,23.30
2023-03-22T02:42:36.175Z,25.20
2023-03-22T02:45:16.235Z,25.70
2023-03-22T02:47:57.611Z,29.40
2023-03-22T02:50:36.720Z,25.20
2023-03-22T02:53:16.160Z,25.30
2023-03-22T02:55:53.653Z,26.30
2023-03-22T02:58:30.105Z,25.90
2023-03-22T03:01:07.333Z,24.30
2023-03-22T03:03:40.852Z,24.00
2023-03-22T03:06:19.338Z,23.70
2023-03-22T03:08:53.516Z,25.00
2023-03-22T03:11:26.018Z,24.90
2023-03-22T03:13:58.947Z,26.90
2023-03-22T03:16:36.792Z,25.00
2023-03-22T03:19:21.262Z,21.30
2023-03-22T03:22:02.218Z,23.80
2023-03-22T03:24:40.974Z,24.60
2023-03-22T03:27:20.248Z,26.70
2023-03-22T03:30:01.509Z,28.50
2023-03-22T03:32:37.549Z,26.20
2023-03-22T03:35:22.640Z,24.80
2023-03-22T03:38:01.535Z,27.60
2023-03-22T03:40:38.880Z,25.00
2023-03-22T03:43:12.087Z,27.90
2023-03-22T03:45:45.808Z,24.50
2023-03-22T03:48:22.993Z,23.80
2023-03-22T03:50:57.788Z,26.10
2023-03-22T03:53:30.313Z,23.50
2023-03-22T03:56:02.715Z,23.80
2023-03-22T03:58:40.969Z,26.30
2023-03-22T04:01:13.766Z,26.30
2023-03-22T04:04:15.618Z,26.80
2023-03-22T04:07:00.722Z,26.70
2023-03-22T04:09:37.031Z,26.70
2023-03-22T04:12:31.362Z,28.50
2023-03-22T04:15:18.354Z,26.90
2023-03-22T04:17:55.082Z,27.70
2023-03-22T04:20:29.927Z,26.00
2023-03-22T04:23:02.415Z,23.50
2023-03-22T04:25:38.029Z,26.60
2023-03-22T04:28:14.360Z,29.40
2023-03-22T04:30:46.847Z,27.80
2023-03-22T04:33:28.167Z,27.60
2023-03-22T04:36:17.588Z,27.40
2023-03-22T04:41:44.076Z,31.10
2023-03-22T04:44:16.486Z,26.30
2023-03-22T04:46:55.993Z,26.20
2023-03-22T04:49:28.411Z,35.80
2023-03-22T04:52:01.008Z,34.00
2023-03-22T04:54:43.170Z,31.00
2023-03-22T04:57:15.580Z,50.00
2023-03-22T04:59:51.050Z,43.50
2023-03-22T05:02:23.586Z,45.60
2023-03-22T05:04:56.215Z,74.00
2023-03-22T05:07:36.607Z,63.60
2023-03-22T05:10:11.031Z,42.40
2023-03-22T05:15:22.771Z,32.30
2023-03-22T05:17:56.864Z,25.70
2023-03-22T05:20:29.262Z,35.40
2023-03-22T05:23:23.636Z,40.70
2023-03-22T05:26:01.748Z,32.60
2023-03-22T05:28:34.511Z,28.90
2023-03-22T05:31:15.691Z,30.50
2023-03-22T05:33:53.286Z,29.60
2023-03-22T05:36:26.212Z,29.40
2023-03-22T05:39:24.437Z,49.30
2023-03-22T05:41:57.350Z,58.60
2023-03-22T05:44:29.794Z,40.50
2023-03-22T05:47:13.670Z,31.10
2023-03-22T05:50:07.495Z,31.20
2023-03-22T05:52:40.158Z,29.20
2023-03-22T05:55:33.343Z,29.00
2023-03-22T05:58:08.556Z,31.00
2023-03-22T06:00:43.313Z,33.20
2023-03-22T06:03:35.995Z,39.70
2023-03-22T06:06:16.684Z,38.30
2023-03-22T06:09:07.249Z,35.10
2023-03-22T06:11:47.015Z,35.90
2023-03-22T06:14:20.469Z,32.70
2023-03-22T06:17:08.247Z,31.90
2023-03-22T06:19:40.624Z,36.10
2023-03-22T06:22:13.625Z,37.90
2023-03-22T06:24:46.099Z,39.00
2023-03-22T06:27:22.588Z,34.60
2023-03-22T06:29:55.248Z,39.40
2023-03-22T06:32:30.022Z,43.70
2023-03-22T06:35:03.026Z,37.70
2023-03-22T06:37:35.419Z,38.30
2023-03-22T06:40:11.841Z,36.20
2023-03-22T06:42:44.257Z,38.30
2023-03-22T06:45:18.164Z,38.10
2023-03-22T06:47:51.832Z,38.60
2023-03-22T06:50:44.081Z,39.30
2023-03-22T06:53:24.120Z,51.90
2023-03-22T06:55:56.674Z,45.40
2023-03-22T06:58:30.078Z,43.90
2023-03-22T07:01:03.618Z,43.50
2023-03-22T07:03:37.469Z,39.50
2023-03-22T07:06:15.148Z,37.20
2023-03-22T07:08:52.017Z,35.80
2023-03-22T07:11:27.997Z,38.10
2023-03-22T07:14:05.539Z,45.50
2023-03-22T07:16:53.708Z,44.00
2023-03-22T07:19:27.863Z,40.70
2023-03-22T07:22:00.623Z,47.10
2023-03-22T07:24:33.423Z,44.40
2023-03-22T07:27:07.878Z,44.10
2023-03-22T07:29:41.342Z,42.90
2023-03-22T07:32:14.007Z,38.90
2023-03-22T07:34:59.413Z,40.50
2023-03-22T07:37:31.776Z,43.90
2023-03-22T07:40:05.338Z,39.00
2023-03-22T07:42:37.896Z,42.30
2023-03-22T07:45:28.769Z,42.10
2023-03-22T07:48:22.977Z,45.80
2023-03-22T07:51:21.529Z,47.40
2023-03-22T07:53:54.352Z,45.10
2023-03-22T07:56:26.803Z,98.50
2023-03-22T07:58:59.333Z,199.00
2023-03-22T08:01:32.008Z,73.80
2023-03-22T08:04:10.755Z,61.30
2023-03-22T08:06:54.933Z,85.10
2023-03-22T08:09:27.643Z,80.60
2023-03-22T08:12:00.954Z,51.70
2023-03-22T08:14:36.835Z,67.50
2023-03-22T08:17:12.456Z,59.60
2023-03-22T08:19:45.420Z,59.30
2023-03-22T08:25:19.782Z,69.80
2023-03-22T08:27:53.059Z,51.80
2023-03-22T08:30:25.476Z,48.70
2023-03-22T08:32:58.388Z,50.60
2023-03-22T08:35:30.899Z,77.90
2023-03-22T08:38:03.641Z,71.70
2023-03-22T08:40:43.089Z,72.50
2023-03-22T08:43:15.475Z,53.00
2023-03-22T08:45:48.861Z,51.20
2023-03-22T08:48:22.215Z,53.00
2023-03-22T08:51:10.745Z,52.00
2023-03-22T08:54:09.798Z,45.10
2023-03-22T08:57:03.345Z,57.40
2023-03-22T08:59:59.069Z,58.80
2023-03-22T09:02:44.515Z,50.10
2023-03-22T09:05:17.101Z,63.10
2023-03-22T09:07:52.589Z,52.60
2023-03-22T09:10:41.008Z,59.10
2023-03-22T09:13:16.639Z,58.20
2023-03-22T09:15:54.686Z,53.90
2023-03-22T09:18:32.699Z,56.30
2023-03-22T09:21:10.186Z,53.90
2023-03-22T09:23:55.105Z,80.60
2023-03-22T09:26:32.642Z,49.10
2023-03-22T09:29:05.250Z,50.40
2023-03-22T09:31:39.269Z,50.00
2023-03-22T09:34:27.178Z,56.10
2023-03-22T09:37:02.530Z,64.90
2023-03-22T09:39:38.851Z,70.80
2023-03-22T09:42:29.398Z,55.50
2023-03-22T09:45:05.216Z,61.20
2023-03-22T09:47:44.988Z,86.70
2023-03-22T09:50:23.236Z,125.60
2023-03-22T09:52:56.358Z,73.90
2023-03-22T09:55:38.732Z,78.00
2023-03-22T09:58:24.672Z,72.20
2023-03-22T10:01:02.364Z,64.80
2023-03-22T10:04:14.972Z,70.80
2023-03-22T10:06:52.086Z,62.40
2023-03-22T10:09:29.718Z,119.30
2023-03-22T10:12:09.204Z,73.20
2023-03-22T10:14:47.992Z,68.80
2023-03-22T10:17:25.331Z,76.60
2023-03-22T10:20:01.875Z,69.60
2023-03-22T10:22:39.401Z,59.70
2023-03-22T10:25:17.165Z,59.70
2023-03-22T10:27:52.685Z,57.50
2023-03-22T10:30:27.542Z,71.80
2023-03-22T10:33:03.685Z,58.10
2023-03-22T10:35:36.383Z,84.90
2023-03-22T10:38:17.805Z,66.50
2023-03-22T10:40:54.083Z,72.20
2023-03-22T10:43:33.102Z,52.60
2023-03-22T10:46:09.210Z,53.20
2023-03-22T10:48:45.340Z,68.30
2023-03-22T10:51:26.751Z,64.60
2023-03-22T10:54:01.653Z,56.00
2023-03-22T10:56:33.918Z,51.70
2023-03-22T10:59:06.213Z,57.20
2023-03-22T11:01:45.260Z,57.80
2023-03-22T11:04:18.280Z,84.70
2023-03-22T11:06:56.434Z,64.90
2023-03-22T11:09:28.921Z,63.30
2023-03-22T11:12:02.394Z,52.20
2023-03-22T11:14:37.387Z,60.50
2023-03-22T11:17:14.664Z,60.00
2023-03-22T11:19:56.918Z,45.10
2023-03-22T11:22:35.872Z,47.20
2023-03-22T11:25:15.649Z,60.80
2023-03-22T11:27:56.271Z,40.20
2023-03-22T11:30:32.567Z,53.90
2023-03-22T11:33:18.806Z,47.80
2023-03-22T11:35:57.853Z,46.10
2023-03-22T11:38:36.722Z,43.20
2023-03-22T11:41:16.992Z,40.70
2023-03-22T11:43:54.368Z,42.00
2023-03-22T11:46:27.330Z,44.40
2023-03-22T11:49:03.848Z,43.70
2023-03-22T11:51:39.742Z,48.50
2023-03-22T11:54:20.786Z,56.30
2023-03-22T11:56:55.867Z,57.30
2023-03-22T12:02:06.676Z,59.10
2023-03-22T12:04:42.177Z,62.70
2023-03-22T12:07:19.556Z,104.10
2023-03-22T12:09:59.123Z,89.10
2023-03-22T12:12:37.123Z,81.00
2023-03-22T12:15:18.847Z,77.00
2023-03-22T12:17:57.843Z,76.10
2023-03-22T12:20:41.304Z,60.50
2023-03-22T12:23:19.393Z,98.30
2023-03-22T12:25:56.386Z,173.70
2023-03-22T12:28:34.661Z,76.30
2023-03-22T12:31:11.790Z,54.70
2023-03-22T12:33:48.374Z,102.40
2023-03-22T12:36:23.398Z,66.10
2023-03-22T12:41:33.646Z,59.70
2023-03-22T12:44:12.302Z,71.70
2023-03-22T12:46:51.816Z,77.40
2023-03-22T12:49:31.232Z,49.00
2023-03-22T12:52:13.306Z,50.90
2023-03-22T12:54:48.129Z,39.00
2023-03-22T12:57:20.957Z,39.90
2023-03-22T12:59:56.912Z,35.90
2023-03-22T13:02:32.749Z,36.10
2023-03-22T13:05:09.368Z,29.70
2023-03-22T13:07:54.458Z,26.70
2023-03-22T13:11:11.777Z,35.50
2023-03-22T13:13:48.986Z,33.10
2023-03-22T13:16:24.855Z,34.00
2023-03-22T13:19:03.197Z,36.20
2023-03-22T13:21:39.748Z,42.60
2023-03-22T13:24:26.498Z,30.30
2023-03-22T13:27:02.166Z,26.50
2023-03-22T13:29:41.969Z,25.60
2023-03-22T13:32:33.472Z,28.30
2023-03-22T13:35:22.020Z,33.00
2023-03-22T13:37:55.555Z,26.90
2023-03-22T13:40:36.307Z,41.90
2023-03-22T13:43:29.002Z,28.70
2023-03-22T13:46:44.935Z,23.20
2023-03-22T13:49:32.987Z,45.00
2023-03-22T13:52:10.672Z,28.50
2023-03-22T13:54:49.623Z,50.50
2023-03-22T13:57:45.607Z,86.50
2023-03-22T14:00:44.913Z,40.10
2023-03-22T14:03:25.664Z,35.80
2023-03-22T14:06:07.445Z,32.10
2023-03-22T14:08:41.816Z,39.70
2023-03-22T14:11:31.036Z,34.10
2023-03-22T14:14:07.925Z,38.80
2023-03-22T14:16:43.835Z,35.90
2023-03-22T14:19:21.646Z,28.80
